sensor_id;sensor_type;location;lat;lon;timestamp;pressure;altitude;pressure_sealevel;temperature;humidity
57859;BME280;49153;45.568;11.894;2022-08-07T00:01:37;101347.38;;;23.74;78.18
57859;BME280;49153;45.568;11.894;2022-08-07T00:04:05;101356.81;;;23.78;78.69
57859;BME280;49153;45.568;11.894;2022-08-07T00:06:32;101358.78;;;23.84;78.53
57859;BME280;49153;45.568;11.894;2022-08-07T00:09:00;101352.44;;;23.77;78.16
57859;BME280;49153;45.568;11.894;2022-08-07T00:11:31;101371.13;;;23.79;77.59
57859;BME280;49153;45.568;11.894;2022-08-07T00:13:58;101366.78;;;23.70;77.58
57859;BME280;49153;45.568;11.894;2022-08-07T00:16:23;101365.84;;;23.63;77.88
57859;BME280;49153;45.568;11.894;2022-08-07T00:18:49;101346.56;;;23.51;77.95
57859;BME280;49153;45.568;11.894;2022-08-07T00:21:15;101355.28;;;23.53;77.99
57859;BME280;49153;45.568;11.894;2022-08-07T00:23:40;101356.97;;;23.54;78.07
57859;BME280;49153;45.568;11.894;2022-08-07T00:26:07;101355.28;;;23.53;78.26
57859;BME280;49153;45.568;11.894;2022-08-07T00:28:33;101334.16;;;23.34;77.81
57859;BME280;49153;45.568;11.894;2022-08-07T00:31:03;101352.97;;;23.42;77.35
57859;BME280;49153;45.568;11.894;2022-08-07T00:33:29;101338.78;;;23.25;76.87
57859;BME280;49153;45.568;11.894;2022-08-07T00:35:55;101334.25;;;23.17;77.39
57859;BME280;49153;45.568;11.894;2022-08-07T00:38:21;101357.09;;;23.22;77.42
57859;BME280;49153;45.568;11.894;2022-08-07T00:40:46;101359.16;;;23.20;77.60
57859;BME280;49153;45.568;11.894;2022-08-07T00:43:12;101349.44;;;23.10;77.78
57859;BME280;49153;45.568;11.894;2022-08-07T00:45:39;101357.34;;;23.12;78.15
57859;BME280;49153;45.568;11.894;2022-08-07T00:48:06;101348.47;;;23.03;78.33
57859;BME280;49153;45.568;11.894;2022-08-07T00:50:32;101337.38;;;22.98;77.94
57859;BME280;49153;45.568;11.894;2022-08-07T00:52:58;101341.41;;;23.02;78.22
57859;BME280;49153;45.568;11.894;2022-08-07T00:55:23;101327.53;;;22.83;78.21
57859;BME280;49153;45.568;11.894;2022-08-07T00:57:49;101326.84;;;22.81;78.80
57859;BME280;49153;45.568;11.894;2022-08-07T01:00:17;101340.28;;;22.89;78.64
57859;BME280;49153;45.568;11.894;2022-08-07T01:02:44;101361.59;;;22.98;78.98
57859;BME280;49153;45.568;11.894;2022-08-07T01:05:10;101363.63;;;22.96;78.67
57859;BME280;49153;45.568;11.894;2022-08-07T01:07:35;101372.38;;;22.90;78.69
57859;BME280;49153;45.568;11.894;2022-08-07T01:10:01;101376.13;;;22.81;78.77
57859;BME280;49153;45.568;11.894;2022-08-07T01:12:27;101369.75;;;22.58;77.93
57859;BME280;49153;45.568;11.894;2022-08-07T01:14:53;101391.63;;;22.63;78.11
57859;BME280;49153;45.568;11.894;2022-08-07T01:17:22;101394.16;;;22.56;78.11
57859;BME280;49153;45.568;11.894;2022-08-07T01:19:48;101371.97;;;22.38;78.27
57859;BME280;49153;45.568;11.894;2022-08-07T01:22:14;101398.34;;;22.43;78.32
57859;BME280;49153;45.568;11.894;2022-08-07T01:24:40;101392.50;;;22.39;78.34
57859;BME280;49153;45.568;11.894;2022-08-07T01:27:06;101380.72;;;22.32;78.43
57859;BME280;49153;45.568;11.894;2022-08-07T01:29:32;101375.53;;;22.30;78.33
57859;BME280;49153;45.568;11.894;2022-08-07T01:31:58;101392.31;;;22.32;78.57
57859;BME280;49153;45.568;11.894;2022-08-07T01:34:29;101369.16;;;22.23;78.16
57859;BME280;49153;45.568;11.894;2022-08-07T01:36:55;101386.94;;;22.32;78.54
57859;BME280;49153;45.568;11.894;2022-08-07T01:39:21;101388.78;;;22.32;78.31
57859;BME280;49153;45.568;11.894;2022-08-07T01:41:46;101373.00;;;22.21;78.22
57859;BME280;49153;45.568;11.894;2022-08-07T01:44:12;101394.19;;;22.40;78.44
57859;BME280;49153;45.568;11.894;2022-08-07T01:46:41;101399.03;;;22.45;78.83
57859;BME280;49153;45.568;11.894;2022-08-07T01:49:06;101407.59;;;22.48;78.48
57859;BME280;49153;45.568;11.894;2022-08-07T01:51:32;101407.78;;;22.47;79.31
57859;BME280;49153;45.568;11.894;2022-08-07T01:54:02;101398.38;;;22.35;78.81
57859;BME280;49153;45.568;11.894;2022-08-07T01:56:47;101398.53;;;22.33;78.92
57859;BME280;49153;45.568;11.894;2022-08-07T01:59:17;101422.56;;;22.43;78.73
57859;BME280;49153;45.568;11.894;2022-08-07T02:02:14;101422.56;;;22.43;78.65
57859;BME280;49153;45.568;11.894;2022-08-07T02:04:55;101402.41;;;22.22;79.28
57859;BME280;49153;45.568;11.894;2022-08-07T02:07:25;101413.16;;;22.22;79.62
57859;BME280;49153;45.568;11.894;2022-08-07T02:09:53;101416.84;;;22.21;79.90
57859;BME280;49153;45.568;11.894;2022-08-07T02:12:20;101398.38;;;22.10;80.45
57859;BME280;49153;45.568;11.894;2022-08-07T02:14:54;101428.97;;;22.25;80.09
57859;BME280;49153;45.568;11.894;2022-08-07T02:17:20;101409.13;;;22.10;80.09
57859;BME280;49153;45.568;11.894;2022-08-07T02:19:48;101424.91;;;22.21;80.10
57859;BME280;49153;45.568;11.894;2022-08-07T02:22:14;101414.50;;;22.10;80.44
57859;BME280;49153;45.568;11.894;2022-08-07T02:24:42;101419.88;;;22.10;81.37
57859;BME280;49153;45.568;11.894;2022-08-07T02:27:09;101415.84;;;21.98;81.11
57859;BME280;49153;45.568;11.894;2022-08-07T02:29:37;101414.09;;;21.89;81.46
57859;BME280;49153;45.568;11.894;2022-08-07T02:32:04;101410.06;;;21.85;81.87
57859;BME280;49153;45.568;11.894;2022-08-07T02:34:31;101415.44;;;21.85;81.73
57859;BME280;49153;45.568;11.894;2022-08-07T02:37:00;101407.56;;;21.83;81.91
57859;BME280;49153;45.568;11.894;2022-08-07T02:39:28;101420.69;;;21.95;82.09
57859;BME280;49153;45.568;11.894;2022-08-07T02:41:55;101397.63;;;21.84;81.85
57859;BME280;49153;45.568;11.894;2022-08-07T02:44:22;101413.81;;;22.00;82.24
57859;BME280;49153;45.568;11.894;2022-08-07T02:46:49;101397.19;;;21.97;82.11
57859;BME280;49153;45.568;11.894;2022-08-07T02:49:17;101398.38;;;21.94;81.95
57859;BME280;49153;45.568;11.894;2022-08-07T02:51:44;101383.22;;;21.85;82.10
57859;BME280;49153;45.568;11.894;2022-08-07T02:54:11;101404.19;;;21.81;81.72
57859;BME280;49153;45.568;11.894;2022-08-07T02:56:38;101404.69;;;21.85;81.86
57859;BME280;49153;45.568;11.894;2022-08-07T02:59:08;101403.03;;;21.92;81.95
57859;BME280;49153;45.568;11.894;2022-08-07T03:01:38;101415.50;;;22.01;82.05
57859;BME280;49153;45.568;11.894;2022-08-07T03:04:06;101405.59;;;22.02;82.70
57859;BME280;49153;45.568;11.894;2022-08-07T03:06:33;101414.69;;;22.09;82.75
57859;BME280;49153;45.568;11.894;2022-08-07T03:09:04;101409.66;;;22.14;82.44
57859;BME280;49153;45.568;11.894;2022-08-07T03:11:32;101399.38;;;22.17;82.72
57859;BME280;49153;45.568;11.894;2022-08-07T03:13:59;101383.94;;;22.11;82.40
57859;BME280;49153;45.568;11.894;2022-08-07T03:16:26;101379.72;;;21.92;82.52
57859;BME280;49153;45.568;11.894;2022-08-07T03:18:52;101366.59;;;21.81;82.95
57859;BME280;49153;45.568;11.894;2022-08-07T03:21:18;101357.00;;;21.79;83.25
57859;BME280;49153;45.568;11.894;2022-08-07T03:23:44;101363.75;;;21.83;83.12
57859;BME280;49153;45.568;11.894;2022-08-07T03:26:13;101367.09;;;21.85;83.35
57859;BME280;49153;45.568;11.894;2022-08-07T03:28:42;101363.75;;;21.91;83.57
57859;BME280;49153;45.568;11.894;2022-08-07T03:31:10;101371.00;;;22.07;83.78
57859;BME280;49153;45.568;11.894;2022-08-07T03:34:00;101363.78;;;22.07;83.39
57859;BME280;49153;45.568;11.894;2022-08-07T03:36:26;101360.25;;;22.07;83.37
57859;BME280;49153;45.568;11.894;2022-08-07T03:38:58;101351.69;;;22.03;83.73
57859;BME280;49153;45.568;11.894;2022-08-07T03:41:27;101333.19;;;22.00;83.88
57859;BME280;49153;45.568;11.894;2022-08-07T03:43:53;101335.22;;;22.06;83.70
57859;BME280;49153;45.568;11.894;2022-08-07T03:46:21;101344.28;;;22.13;83.87
57859;BME280;49153;45.568;11.894;2022-08-07T03:48:48;101354.38;;;22.19;83.64
57859;BME280;49153;45.568;11.894;2022-08-07T03:51:14;101342.44;;;22.06;83.85
57859;BME280;49153;45.568;11.894;2022-08-07T03:53:39;101359.41;;;22.14;83.55
57859;BME280;49153;45.568;11.894;2022-08-07T03:56:06;101359.09;;;22.09;83.45
57859;BME280;49153;45.568;11.894;2022-08-07T03:58:32;101357.06;;;22.03;83.31
57859;BME280;49153;45.568;11.894;2022-08-07T04:00:59;101362.44;;;22.11;83.97
57859;BME280;49153;45.568;11.894;2022-08-07T04:03:25;101362.09;;;22.14;83.57
57859;BME280;49153;45.568;11.894;2022-08-07T04:05:51;101377.56;;;22.20;83.45
57859;BME280;49153;45.568;11.894;2022-08-07T04:08:17;101379.91;;;22.15;82.73
57859;BME280;49153;45.568;11.894;2022-08-07T04:10:42;101369.16;;;21.99;83.27
57859;BME280;49153;45.568;11.894;2022-08-07T04:13:12;101346.94;;;21.89;83.11
57859;BME280;49153;45.568;11.894;2022-08-07T04:15:38;101362.09;;;21.98;83.09
57859;BME280;49153;45.568;11.894;2022-08-07T04:18:03;101354.19;;;21.88;83.14
57859;BME280;49153;45.568;11.894;2022-08-07T04:20:29;101353.00;;;21.83;83.91
57859;BME280;49153;45.568;11.894;2022-08-07T04:22:57;101352.16;;;21.82;84.25
57859;BME280;49153;45.568;11.894;2022-08-07T04:25:23;101336.19;;;21.81;84.33
57859;BME280;49153;45.568;11.894;2022-08-07T04:27:50;101346.31;;;21.95;84.41
57859;BME280;49153;45.568;11.894;2022-08-07T04:30:16;101352.53;;;22.04;84.26
57859;BME280;49153;45.568;11.894;2022-08-07T04:32:42;101350.34;;;22.07;84.38
57859;BME280;49153;45.568;11.894;2022-08-07T04:35:08;101350.00;;;22.10;84.70
57859;BME280;49153;45.568;11.894;2022-08-07T04:37:34;101343.81;;;22.10;84.74
57859;BME280;49153;45.568;11.894;2022-08-07T04:40:01;101329.88;;;21.98;84.33
57859;BME280;49153;45.568;11.894;2022-08-07T04:42:27;101343.97;;;22.08;84.51
57859;BME280;49153;45.568;11.894;2022-08-07T04:44:57;101329.88;;;21.98;84.46
57859;BME280;49153;45.568;11.894;2022-08-07T04:50:15;101342.28;;;21.99;84.51
57859;BME280;49153;45.568;11.894;2022-08-07T04:52:58;101340.41;;;22.00;84.14
57859;BME280;49153;45.568;11.894;2022-08-07T04:58:14;101372.34;;;22.11;84.21
57859;BME280;49153;45.568;11.894;2022-08-07T05:00:47;101357.41;;;22.08;84.31
57859;BME280;49153;45.568;11.894;2022-08-07T05:03:43;101356.06;;;22.12;84.49
57859;BME280;49153;45.568;11.894;2022-08-07T05:06:15;101369.16;;;22.23;84.34
57859;BME280;49153;45.568;11.894;2022-08-07T05:08:49;101370.69;;;22.26;84.20
57859;BME280;49153;45.568;11.894;2022-08-07T05:11:24;101356.06;;;22.20;84.35
57859;BME280;49153;45.568;11.894;2022-08-07T05:14:09;101372.84;;;22.30;84.10
57859;BME280;49153;45.568;11.894;2022-08-07T05:16:37;101380.06;;;22.30;83.95
57859;BME280;49153;45.568;11.894;2022-08-07T05:19:11;101371.66;;;22.17;83.67
57859;BME280;49153;45.568;11.894;2022-08-07T05:21:46;101371.16;;;22.21;83.66
57859;BME280;49153;45.568;11.894;2022-08-07T05:24:14;101359.75;;;22.19;84.21
57859;BME280;49153;45.568;11.894;2022-08-07T05:26:45;101342.63;;;22.12;84.26
57859;BME280;49153;45.568;11.894;2022-08-07T05:29:13;101370.16;;;22.30;84.49
57859;BME280;49153;45.568;11.894;2022-08-07T05:31:40;101369.47;;;22.28;83.88
57859;BME280;49153;45.568;11.894;2022-08-07T05:34:10;101372.84;;;22.30;84.18
57859;BME280;49153;45.568;11.894;2022-08-07T05:36:38;101381.91;;;22.38;84.18
57859;BME280;49153;45.568;11.894;2022-08-07T05:39:05;101356.38;;;22.25;83.40
57859;BME280;49153;45.568;11.894;2022-08-07T05:41:31;101365.28;;;22.26;83.30
57859;BME280;49153;45.568;11.894;2022-08-07T05:43:57;101389.63;;;22.41;83.38
57859;BME280;49153;45.568;11.894;2022-08-07T05:46:23;101392.47;;;22.47;83.52
57859;BME280;49153;45.568;11.894;2022-08-07T05:48:49;101395.47;;;22.60;84.30
57859;BME280;49153;45.568;11.894;2022-08-07T05:51:16;101398.97;;;22.69;84.32
57859;BME280;49153;45.568;11.894;2022-08-07T05:53:42;101391.28;;;22.74;84.13
57859;BME280;49153;45.568;11.894;2022-08-07T05:56:08;101393.44;;;22.87;84.59
57859;BME280;49153;45.568;11.894;2022-08-07T05:58:38;101395.75;;;22.98;84.10
57859;BME280;49153;45.568;11.894;2022-08-07T06:01:07;101377.06;;;22.96;83.81
57859;BME280;49153;45.568;11.894;2022-08-07T06:03:35;101394.31;;;23.18;83.52
57859;BME280;49153;45.568;11.894;2022-08-07T06:06:02;101399.81;;;23.33;83.52
57859;BME280;49153;45.568;11.894;2022-08-07T06:08:28;101385.00;;;23.37;83.46
57859;BME280;49153;45.568;11.894;2022-08-07T06:10:54;101394.97;;;23.59;83.27
57859;BME280;49153;45.568;11.894;2022-08-07T06:13:20;101379.47;;;23.61;83.31
57859;BME280;49153;45.568;11.894;2022-08-07T06:15:47;101400.56;;;23.80;83.37
57859;BME280;49153;45.568;11.894;2022-08-07T06:18:13;101399.59;;;23.96;83.06
57859;BME280;49153;45.568;11.894;2022-08-07T06:20:39;101401.03;;;24.07;82.83
57859;BME280;49153;45.568;11.894;2022-08-07T06:23:07;101399.63;;;24.19;82.21
57859;BME280;49153;45.568;11.894;2022-08-07T06:25:35;101406.06;;;24.32;81.74
57859;BME280;49153;45.568;11.894;2022-08-07T06:28:06;101403.78;;;24.44;80.87
57859;BME280;49153;45.568;11.894;2022-08-07T06:30:33;101392.66;;;24.47;80.45
57859;BME280;49153;45.568;11.894;2022-08-07T06:33:00;101412.38;;;24.62;79.83
57859;BME280;49153;45.568;11.894;2022-08-07T06:35:25;101412.66;;;24.67;78.58
57859;BME280;49153;45.568;11.894;2022-08-07T06:37:51;101419.75;;;24.68;78.44
57859;BME280;49153;45.568;11.894;2022-08-07T06:40:16;101414.41;;;24.60;78.67
57859;BME280;49153;45.568;11.894;2022-08-07T06:42:45;101420.19;;;24.57;78.49
57859;BME280;49153;45.568;11.894;2022-08-07T06:45:14;101425.94;;;24.54;79.77
57859;BME280;49153;45.568;11.894;2022-08-07T06:47:40;101426.31;;;24.51;79.33
57859;BME280;49153;45.568;11.894;2022-08-07T06:50:06;101423.63;;;24.51;79.24
57859;BME280;49153;45.568;11.894;2022-08-07T06:52:35;101431.03;;;24.49;79.03
57859;BME280;49153;45.568;11.894;2022-08-07T06:55:23;101438.50;;;24.47;79.25
57859;BME280;49153;45.568;11.894;2022-08-07T06:57:50;101432.44;;;24.45;79.01
57859;BME280;49153;45.568;11.894;2022-08-07T07:00:18;101439.88;;;24.43;79.28
57859;BME280;49153;45.568;11.894;2022-08-07T07:02:45;101438.22;;;24.42;78.73
57859;BME280;49153;45.568;11.894;2022-08-07T07:05:11;101452.34;;;24.44;79.40
57859;BME280;49153;45.568;11.894;2022-08-07T07:07:37;101451.41;;;24.37;78.89
57859;BME280;49153;45.568;11.894;2022-08-07T07:10:03;101455.13;;;24.36;78.89
57859;BME280;49153;45.568;11.894;2022-08-07T07:15:21;101464.81;;;24.22;78.69
57859;BME280;49153;45.568;11.894;2022-08-07T07:18:05;101466.72;;;24.14;78.68
57859;BME280;49153;45.568;11.894;2022-08-07T07:20:42;101458.59;;;24.22;79.70
57859;BME280;49153;45.568;11.894;2022-08-07T07:23:10;101455.72;;;24.23;79.20
57859;BME280;49153;45.568;11.894;2022-08-07T07:25:38;101461.59;;;24.27;79.54
57859;BME280;49153;45.568;11.894;2022-08-07T07:30:41;101468.59;;;24.36;79.59
57859;BME280;49153;45.568;11.894;2022-08-07T07:33:11;101460.13;;;24.39;78.95
57859;BME280;49153;45.568;11.894;2022-08-07T07:35:40;101461.94;;;24.47;79.43
57859;BME280;49153;45.568;11.894;2022-08-07T07:38:06;101475.47;;;24.61;78.06
57859;BME280;49153;45.568;11.894;2022-08-07T07:40:33;101472.69;;;24.69;79.04
57859;BME280;49153;45.568;11.894;2022-08-07T07:43:04;101474.94;;;24.80;78.86
57859;BME280;49153;45.568;11.894;2022-08-07T07:45:30;101480.19;;;24.97;78.84
57859;BME280;49153;45.568;11.894;2022-08-07T07:47:57;101479.00;;;25.14;78.98
57859;BME280;49153;45.568;11.894;2022-08-07T07:50:24;101479.94;;;25.21;78.25
57859;BME280;49153;45.568;11.894;2022-08-07T07:52:52;101482.09;;;25.26;78.85
57859;BME280;49153;45.568;11.894;2022-08-07T07:55:19;101475.84;;;25.25;78.27
57859;BME280;49153;45.568;11.894;2022-08-07T07:57:47;101484.63;;;25.27;78.02
57859;BME280;49153;45.568;11.894;2022-08-07T08:00:14;101485.63;;;25.26;77.22
57859;BME280;49153;45.568;11.894;2022-08-07T08:02:40;101487.03;;;25.22;76.63
57859;BME280;49153;45.568;11.894;2022-08-07T08:05:08;101480.59;;;25.23;76.51
57859;BME280;49153;45.568;11.894;2022-08-07T08:07:34;101482.28;;;25.24;75.77
57859;BME280;49153;45.568;11.894;2022-08-07T08:10:03;101478.16;;;25.28;75.48
57859;BME280;49153;45.568;11.894;2022-08-07T08:12:31;101468.19;;;25.29;75.60
57859;BME280;49153;45.568;11.894;2022-08-07T08:14:57;101464.94;;;25.33;75.52
57859;BME280;49153;45.568;11.894;2022-08-07T08:17:24;101465.78;;;25.34;75.12
57859;BME280;49153;45.568;11.894;2022-08-07T08:19:55;101477.06;;;25.37;74.74
57859;BME280;49153;45.568;11.894;2022-08-07T08:22:22;101482.47;;;25.37;74.62
57859;BME280;49153;45.568;11.894;2022-08-07T08:25:07;101484.50;;;25.35;75.27
57859;BME280;49153;45.568;11.894;2022-08-07T08:27:53;101486.47;;;25.27;75.98
57859;BME280;49153;45.568;11.894;2022-08-07T08:30:19;101491.94;;;25.04;75.92
57859;BME280;49153;45.568;11.894;2022-08-07T08:32:52;101487.06;;;24.85;76.64
57859;BME280;49153;45.568;11.894;2022-08-07T08:35:21;101486.72;;;24.65;76.90
57859;BME280;49153;45.568;11.894;2022-08-07T08:37:48;101483.31;;;24.48;77.37
57859;BME280;49153;45.568;11.894;2022-08-07T08:40:23;101494.56;;;24.37;78.42
57859;BME280;49153;45.568;11.894;2022-08-07T08:42:59;101492.63;;;24.23;78.53
57859;BME280;49153;45.568;11.894;2022-08-07T08:45:41;101492.63;;;24.23;79.21
57859;BME280;49153;45.568;11.894;2022-08-07T08:48:20;101493.63;;;24.22;79.18
57859;BME280;49153;45.568;11.894;2022-08-07T08:50:51;101480.53;;;24.19;79.52
57859;BME280;49153;45.568;11.894;2022-08-07T08:53:31;101489.28;;;24.21;80.20
57859;BME280;49153;45.568;11.894;2022-08-07T08:56:05;101496.00;;;24.25;80.74
57859;BME280;49153;45.568;11.894;2022-08-07T08:58:49;101486.91;;;24.26;81.39
57859;BME280;49153;45.568;11.894;2022-08-07T09:12:26;101497.91;;;24.39;81.09
57859;BME280;49153;45.568;11.894;2022-08-07T09:26:39;101495.31;;;24.68;79.08
57859;BME280;49153;45.568;11.894;2022-08-07T09:29:43;101499.50;;;24.71;78.51
57859;BME280;49153;45.568;11.894;2022-08-07T09:32:38;101495.09;;;24.70;77.05
57859;BME280;49153;45.568;11.894;2022-08-07T09:38:08;101499.03;;;24.67;77.05
57859;BME280;49153;45.568;11.894;2022-08-07T09:41:29;101488.06;;;24.69;76.96
57859;BME280;49153;45.568;11.894;2022-08-07T09:46:31;101479.03;;;24.76;78.22
57859;BME280;49153;45.568;11.894;2022-08-07T09:49:27;101478.31;;;24.82;77.43
57859;BME280;49153;45.568;11.894;2022-08-07T09:54:56;101481.78;;;24.91;77.20
57859;BME280;49153;45.568;11.894;2022-08-07T10:01:06;101482.47;;;24.70;75.79
57859;BME280;49153;45.568;11.894;2022-08-07T10:06:48;101479.00;;;24.62;76.59
57859;BME280;49153;45.568;11.894;2022-08-07T10:21:20;101463.72;;;24.54;77.61
57859;BME280;49153;45.568;11.894;2022-08-07T10:38:01;101453.25;;;24.14;78.85
57859;BME280;49153;45.568;11.894;2022-08-07T10:40:47;101443.53;;;24.05;78.79
57859;BME280;49153;45.568;11.894;2022-08-07T10:43:20;101451.78;;;24.03;78.66
57859;BME280;49153;45.568;11.894;2022-08-07T10:45:53;101444.25;;;23.98;78.68
57859;BME280;49153;45.568;11.894;2022-08-07T10:48:41;101439.50;;;24.00;78.47
57859;BME280;49153;45.568;11.894;2022-08-07T10:51:34;101435.78;;;24.02;78.78
57859;BME280;49153;45.568;11.894;2022-08-07T10:54:14;101417.63;;;23.95;78.89
57859;BME280;49153;45.568;11.894;2022-08-07T10:59:32;101383.56;;;23.80;79.06
57859;BME280;49153;45.568;11.894;2022-08-07T11:02:15;101372.31;;;23.76;79.32
57859;BME280;49153;45.568;11.894;2022-08-07T11:04:54;101373.16;;;23.77;79.38
57859;BME280;49153;45.568;11.894;2022-08-07T11:10:00;101399.22;;;23.84;79.64
57859;BME280;49153;45.568;11.894;2022-08-07T11:12:32;101402.72;;;23.85;79.52
57859;BME280;49153;45.568;11.894;2022-08-07T11:15:05;101410.63;;;23.86;78.88
57859;BME280;49153;45.568;11.894;2022-08-07T11:17:53;101422.72;;;23.90;79.08
57859;BME280;49153;45.568;11.894;2022-08-07T11:20:54;101429.47;;;23.94;78.99
57859;BME280;49153;45.568;11.894;2022-08-07T11:23:46;101415.69;;;23.89;79.05
57859;BME280;49153;45.568;11.894;2022-08-07T11:29:32;101431.00;;;23.89;78.83
57859;BME280;49153;45.568;11.894;2022-08-07T11:32:15;101432.66;;;23.90;79.49
57859;BME280;49153;45.568;11.894;2022-08-07T11:35:20;101426.22;;;23.99;79.40
57859;BME280;49153;45.568;11.894;2022-08-07T11:43:05;101405.25;;;24.32;79.95
57859;BME280;49153;45.568;11.894;2022-08-07T11:45:50;101393.38;;;24.41;80.04
57859;BME280;49153;45.568;11.894;2022-08-07T11:57:27;101377.97;;;24.79;79.97
57859;BME280;49153;45.568;11.894;2022-08-07T12:00:18;101370.78;;;24.86;79.86
57859;BME280;49153;45.568;11.894;2022-08-07T12:03:14;101364.03;;;24.90;80.28
57859;BME280;49153;45.568;11.894;2022-08-07T12:05:59;101361.41;;;24.97;80.18
57859;BME280;49153;45.568;11.894;2022-08-07T12:13:55;101362.50;;;25.17;79.78
57859;BME280;49153;45.568;11.894;2022-08-07T12:16:35;101363.16;;;25.19;79.27
57859;BME280;49153;45.568;11.894;2022-08-07T12:19:12;101360.72;;;25.24;79.11
57859;BME280;49153;45.568;11.894;2022-08-07T12:27:03;101349.78;;;25.47;78.50
57859;BME280;49153;45.568;11.894;2022-08-07T12:29:48;101348.09;;;25.46;78.56
57859;BME280;49153;45.568;11.894;2022-08-07T12:32:19;101353.75;;;25.51;77.52
57859;BME280;49153;45.568;11.894;2022-08-07T12:34:47;101347.69;;;25.49;77.38
57859;BME280;49153;45.568;11.894;2022-08-07T12:37:14;101353.94;;;25.49;77.60
57859;BME280;49153;45.568;11.894;2022-08-07T12:39:44;101353.03;;;25.57;77.47
57859;BME280;49153;45.568;11.894;2022-08-07T12:42:11;101348.72;;;25.62;77.63
57859;BME280;49153;45.568;11.894;2022-08-07T12:44:44;101341.47;;;25.63;77.36
57859;BME280;49153;45.568;11.894;2022-08-07T12:50:09;101324.91;;;25.73;76.85
57859;BME280;49153;45.568;11.894;2022-08-07T12:52:47;101332.44;;;25.77;76.59
57859;BME280;49153;45.568;11.894;2022-08-07T12:55:21;101326.00;;;25.78;76.87
57859;BME280;49153;45.568;11.894;2022-08-07T12:57:50;101320.44;;;25.86;76.87
57859;BME280;49153;45.568;11.894;2022-08-07T13:00:18;101323.22;;;25.93;76.20
57859;BME280;49153;45.568;11.894;2022-08-07T13:03:20;101318.47;;;25.95;75.77
57859;BME280;49153;45.568;11.894;2022-08-07T13:20:27;101304.22;;;26.70;75.15
57859;BME280;49153;45.568;11.894;2022-08-07T13:23:12;101292.41;;;26.84;74.85
57859;BME280;49153;45.568;11.894;2022-08-07T13:25:53;101285.81;;;26.93;74.21
57859;BME280;49153;45.568;11.894;2022-08-07T13:28:25;101283.38;;;27.11;73.12
57859;BME280;49153;45.568;11.894;2022-08-07T13:31:18;101280.28;;;27.21;72.59
57859;BME280;49153;45.568;11.894;2022-08-07T13:36:29;101271.34;;;27.40;71.33
57859;BME280;49153;45.568;11.894;2022-08-07T13:39:04;101263.44;;;27.45;70.35
57859;BME280;49153;45.568;11.894;2022-08-07T13:44:06;101258.06;;;27.78;70.18
57859;BME280;49153;45.568;11.894;2022-08-07T13:46:34;101263.06;;;27.94;69.55
57859;BME280;49153;45.568;11.894;2022-08-07T13:49:04;101254.09;;;28.07;68.41
57859;BME280;49153;45.568;11.894;2022-08-07T13:51:32;101253.63;;;28.36;68.50
57859;BME280;49153;45.568;11.894;2022-08-07T13:54:11;101244.56;;;28.62;65.77
57859;BME280;49153;45.568;11.894;2022-08-07T13:56:39;101248.69;;;28.84;65.85
57859;BME280;49153;45.568;11.894;2022-08-07T13:59:11;101243.78;;;29.00;63.77
57859;BME280;49153;45.568;11.894;2022-08-07T14:01:44;101233.19;;;28.91;64.29
57859;BME280;49153;45.568;11.894;2022-08-07T14:04:14;101226.25;;;28.95;64.07
57859;BME280;49153;45.568;11.894;2022-08-07T14:06:44;101217.41;;;29.07;63.17
57859;BME280;49153;45.568;11.894;2022-08-07T14:09:26;101220.50;;;29.17;62.70
57859;BME280;49153;45.568;11.894;2022-08-07T14:11:56;101217.31;;;29.20;63.02
57859;BME280;49153;45.568;11.894;2022-08-07T14:14:47;101207.47;;;29.25;61.83
57859;BME280;49153;45.568;11.894;2022-08-07T14:17:16;101207.06;;;29.22;61.37
57859;BME280;49153;45.568;11.894;2022-08-07T14:19:51;101200.50;;;29.05;60.99
57859;BME280;49153;45.568;11.894;2022-08-07T14:22:23;101194.69;;;28.94;61.50
57859;BME280;49153;45.568;11.894;2022-08-07T14:24:56;101192.84;;;28.88;61.39
57859;BME280;49153;45.568;11.894;2022-08-07T14:27:32;101196.44;;;28.82;61.17
57859;BME280;49153;45.568;11.894;2022-08-07T14:30:03;101198.38;;;28.75;60.86
57859;BME280;49153;45.568;11.894;2022-08-07T14:32:46;101189.38;;;28.68;60.32
57859;BME280;49153;45.568;11.894;2022-08-07T14:35:20;101189.78;;;28.78;60.23
57859;BME280;49153;45.568;11.894;2022-08-07T14:37:49;101182.84;;;28.82;60.61
57859;BME280;49153;45.568;11.894;2022-08-07T14:40:19;101193.97;;;28.81;60.49
57859;BME280;49153;45.568;11.894;2022-08-07T14:42:51;101182.69;;;28.77;59.58
57859;BME280;49153;45.568;11.894;2022-08-07T14:45:17;101186.84;;;28.80;60.65
57859;BME280;49153;45.568;11.894;2022-08-07T14:47:43;101197.91;;;28.85;60.91
57859;BME280;49153;45.568;11.894;2022-08-07T14:50:11;101182.25;;;28.80;60.79
57859;BME280;49153;45.568;11.894;2022-08-07T14:52:43;101210.25;;;28.81;60.97
57859;BME280;49153;45.568;11.894;2022-08-07T14:55:11;101202.75;;;28.76;59.36
57859;BME280;49153;45.568;11.894;2022-08-07T14:57:38;101201.88;;;28.82;61.81
57859;BME280;49153;45.568;11.894;2022-08-07T15:00:05;101203.53;;;28.83;60.81
57859;BME280;49153;45.568;11.894;2022-08-07T15:02:33;101205.69;;;28.75;59.38
57859;BME280;49153;45.568;11.894;2022-08-07T15:05:02;101210.06;;;28.69;59.02
57859;BME280;49153;45.568;11.894;2022-08-07T15:07:28;101199.81;;;28.71;59.91
57859;BME280;49153;45.568;11.894;2022-08-07T15:09:56;101204.22;;;28.72;59.71
57859;BME280;49153;45.568;11.894;2022-08-07T15:12:23;101199.63;;;28.73;60.21